createdAt,value
2024-03-14T00:00:09.169Z,75.76
2024-03-14T00:01:09.134Z,75.56
2024-03-14T00:02:09.157Z,75.35
2024-03-14T00:03:09.135Z,75.35
2024-03-14T00:04:17.016Z,75.04
2024-03-14T00:05:09.165Z,75.35
2024-03-14T00:06:09.434Z,75.35
2024-03-14T00:07:09.097Z,76.07
2024-03-14T00:08:09.077Z,75.76
2024-03-14T00:09:09.175Z,75.86
2024-03-14T00:10:09.111Z,75.96
2024-03-14T00:11:09.154Z,76.07
2024-03-14T00:12:09.102Z,76.37
2024-03-14T00:13:09.035Z,76.07
2024-03-14T00:14:09.089Z,76.27
2024-03-14T00:15:09.074Z,76.07
2024-03-14T00:16:09.187Z,75.96
2024-03-14T00:17:09.086Z,76.27
2024-03-14T00:18:09.189Z,76.37
2024-03-14T00:19:08.993Z,75.96
2024-03-14T00:20:08.989Z,76.17
2024-03-14T00:21:09.062Z,76.27
2024-03-14T00:22:08.941Z,76.27
2024-03-14T00:23:09.000Z,75.96
2024-03-14T00:24:09.069Z,76.17
2024-03-14T00:25:09.012Z,76.07
2024-03-14T00:26:08.898Z,76.07
2024-03-14T00:27:09.066Z,76.27
2024-03-14T00:28:08.946Z,76.07
2024-03-14T00:29:08.902Z,76.58
2024-03-14T00:30:08.916Z,76.68
2024-03-14T00:31:08.992Z,76.37
2024-03-14T00:32:08.908Z,76.58
2024-03-14T00:33:09.225Z,76.58
2024-03-14T00:34:08.846Z,75.86
2024-03-14T00:35:08.902Z,76.27
2024-03-14T00:36:08.855Z,75.86
2024-03-14T00:37:08.879Z,75.86
2024-03-14T00:38:08.813Z,76.07
2024-03-14T00:39:09.010Z,76.07
2024-03-14T00:40:08.725Z,76.58
2024-03-14T00:41:08.813Z,76.37
2024-03-14T00:42:08.895Z,75.96
2024-03-14T00:43:08.779Z,76.27
2024-03-14T00:44:08.708Z,76.27
2024-03-14T00:45:08.702Z,76.48
2024-03-14T00:46:08.702Z,76.37
2024-03-14T00:47:08.691Z,76.37
2024-03-14T00:48:08.910Z,76.48
2024-03-14T00:49:08.756Z,76.58
2024-03-14T00:50:08.622Z,76.68
2024-03-14T00:51:08.654Z,76.48
2024-03-14T00:52:08.750Z,76.27
2024-03-14T00:53:08.665Z,76.27
2024-03-14T00:54:08.715Z,76.37
2024-03-14T00:55:08.557Z,76.68
2024-03-14T00:56:08.586Z,76.68
2024-03-14T00:57:08.708Z,76.48
2024-03-14T00:58:08.607Z,76.07
2024-03-14T00:59:08.568Z,76.37
2024-03-14T01:00:08.685Z,76.27
2024-03-14T01:01:08.595Z,76.48
2024-03-14T01:02:08.618Z,76.27
2024-03-14T01:03:08.594Z,76.48
2024-03-14T01:04:08.501Z,76.58
2024-03-14T01:05:08.491Z,76.78
2024-03-14T01:06:08.489Z,76.89
2024-03-14T01:07:08.593Z,76.78
2024-03-14T01:08:08.558Z,76.89
2024-03-14T01:09:08.500Z,76.78
2024-03-14T01:10:08.473Z,76.78
2024-03-14T01:11:08.537Z,76.78
2024-03-14T01:12:08.825Z,76.68
2024-03-14T01:13:08.539Z,76.07
2024-03-14T01:14:08.442Z,76.17
2024-03-14T01:15:08.474Z,76.68
2024-03-14T01:16:08.410Z,76.27
2024-03-14T01:17:08.448Z,76.48
2024-03-14T01:18:08.473Z,76.68
2024-03-14T01:19:08.405Z,76.95
2024-03-14T01:20:08.370Z,77.16
2024-03-14T01:21:08.287Z,77.36
2024-03-14T01:22:08.370Z,77.16
2024-03-14T01:23:08.363Z,77.47
2024-03-14T01:24:08.281Z,77.36
2024-03-14T01:25:08.275Z,78.49
2024-03-14T01:26:08.348Z,79.55
2024-03-14T01:27:08.277Z,79.86
2024-03-14T01:28:08.260Z,80.68
2024-03-14T01:29:08.371Z,81.91
2024-03-14T01:30:08.337Z,82.73
2024-03-14T01:31:08.237Z,83.76
2024-03-14T01:32:08.257Z,84.68
2024-03-14T01:33:08.209Z,85.39
2024-03-14T01:34:08.320Z,86.83
2024-03-14T01:35:08.207Z,86.93
2024-03-14T01:36:08.318Z,86.98
2024-03-14T01:37:08.373Z,87.28
2024-03-14T01:38:08.232Z,87.90
2024-03-14T01:39:08.256Z,88.31
2024-03-14T01:40:08.158Z,88.72
2024-03-14T01:41:08.069Z,89.54
2024-03-14T01:42:08.241Z,89.54
2024-03-14T01:43:08.101Z,89.78
2024-03-14T01:44:08.088Z,90.40
2024-03-14T01:45:08.128Z,90.61
2024-03-14T01:46:08.036Z,90.81
2024-03-14T01:47:08.034Z,91.33
2024-03-14T01:48:08.084Z,91.74
2024-03-14T01:49:08.139Z,92.04
2024-03-14T01:50:08.007Z,92.35
2024-03-14T01:51:08.058Z,92.66
2024-03-14T01:52:07.954Z,93.07
2024-03-14T01:53:07.913Z,93.17
2024-03-14T01:54:07.934Z,93.52
2024-03-14T01:55:07.874Z,93.73
2024-03-14T01:56:07.969Z,93.93
2024-03-14T01:57:07.966Z,94.34
2024-03-14T01:58:07.889Z,94.45
2024-03-14T01:59:07.896Z,94.34
2024-03-14T02:00:07.928Z,94.34
2024-03-14T02:01:07.868Z,94.45
2024-03-14T02:02:07.836Z,94.96
2024-03-14T02:03:07.954Z,95.17
2024-03-14T02:04:07.789Z,95.27
2024-03-14T02:05:07.837Z,95.47
2024-03-14T02:06:07.817Z,95.37
2024-03-14T02:07:07.846Z,95.57
2024-03-14T02:08:07.844Z,95.78
2024-03-14T02:09:07.824Z,95.57
2024-03-14T02:10:07.769Z,95.68
2024-03-14T02:11:07.768Z,95.89
2024-03-14T02:12:07.800Z,96.09
2024-03-14T02:13:07.735Z,96.30
2024-03-14T02:14:07.697Z,96.30
2024-03-14T02:15:07.878Z,96.30
2024-03-14T02:16:07.741Z,96.40
2024-03-14T02:17:15.540Z,96.50
2024-03-14T02:18:07.915Z,96.60
2024-03-14T02:19:07.769Z,96.70
2024-03-14T02:20:15.571Z,96.81
2024-03-14T02:21:07.683Z,97.02
2024-03-14T02:22:07.681Z,97.22
2024-03-14T02:23:07.600Z,97.22
2024-03-14T02:24:07.637Z,97.12
2024-03-14T02:25:07.561Z,97.12
2024-03-14T02:26:07.576Z,97.22
2024-03-14T02:27:07.675Z,97.22
2024-03-14T02:28:07.526Z,97.22
2024-03-14T02:29:07.547Z,97.02
2024-03-14T02:30:07.596Z,96.81
2024-03-14T02:31:07.501Z,96.81
2024-03-14T02:32:07.543Z,96.97
2024-03-14T02:33:07.617Z,97.17
2024-03-14T02:34:07.523Z,97.17
2024-03-14T02:35:07.466Z,97.22
2024-03-14T02:36:07.505Z,97.17
2024-03-14T02:37:07.437Z,97.07
2024-03-14T02:38:07.444Z,97.28
2024-03-14T02:39:07.455Z,97.48
2024-03-14T02:40:07.688Z,97.38
2024-03-14T02:41:07.370Z,97.48
2024-03-14T02:42:07.518Z,97.58
2024-03-14T02:43:07.349Z,97.58
2024-03-14T02:44:07.338Z,97.69
2024-03-14T02:45:07.411Z,97.69
2024-03-14T02:46:07.318Z,97.58
2024-03-14T02:47:07.320Z,97.48
2024-03-14T02:48:07.373Z,97.48
2024-03-14T02:49:07.339Z,97.48
2024-03-14T02:50:07.287Z,97.58
2024-03-14T02:51:07.324Z,97.58
2024-03-14T02:52:07.356Z,97.58
2024-03-14T02:53:07.253Z,97.69
2024-03-14T02:54:07.254Z,97.79
2024-03-14T02:55:07.244Z,97.79
2024-03-14T02:56:07.229Z,97.89
2024-03-14T02:57:07.246Z,97.99
2024-03-14T02:58:07.289Z,98.10
2024-03-14T02:59:07.172Z,97.99
2024-03-14T03:00:07.241Z,97.79
2024-03-14T03:01:07.178Z,97.58
2024-03-14T03:03:25.013Z,97.48
2024-03-14T03:04:25.767Z,97.58
2024-03-14T03:05:25.684Z,97.64
2024-03-14T03:06:25.670Z,97.64
2024-03-14T03:07:25.613Z,97.44
2024-03-14T03:08:25.659Z,97.44
2024-03-14T03:09:25.680Z,97.74
2024-03-14T03:10:25.614Z,98.05
2024-03-14T03:11:25.614Z,98.25
2024-03-14T03:12:25.622Z,98.25
2024-03-14T03:13:25.607Z,98.36
2024-03-14T03:14:25.589Z,98.25
2024-03-14T03:15:25.647Z,98.25
2024-03-14T03:16:25.564Z,98.36
2024-03-14T03:17:25.603Z,98.46
2024-03-14T03:18:25.646Z,98.57
2024-03-14T03:19:25.527Z,98.67
2024-03-14T03:20:25.556Z,98.77
2024-03-14T03:21:25.606Z,98.67
2024-03-14T03:22:25.471Z,98.67
2024-03-14T03:23:25.495Z,98.67
2024-03-14T03:24:25.584Z,98.67
2024-03-14T03:25:25.507Z,98.67
2024-03-14T03:26:25.519Z,98.67
2024-03-14T03:27:25.551Z,98.77
2024-03-14T03:28:28.565Z,98.77
2024-03-14T03:29:25.391Z,98.67
2024-03-14T03:30:25.543Z,98.77
2024-03-14T03:31:25.386Z,98.77
2024-03-14T03:32:25.438Z,98.67
2024-03-14T03:33:25.593Z,98.52
2024-03-14T03:34:25.411Z,98.57
2024-03-14T03:35:26.763Z,98.62
2024-03-14T03:36:25.457Z,98.62
2024-03-14T03:37:25.361Z,98.52
2024-03-14T03:38:25.328Z,98.52
2024-03-14T03:39:25.401Z,98.62
2024-03-14T03:40:25.322Z,98.72
2024-03-14T03:41:25.527Z,98.72
2024-03-14T03:42:25.352Z,98.62
2024-03-14T03:43:25.405Z,98.62
2024-03-14T03:44:25.279Z,98.52
2024-03-14T03:45:25.311Z,98.62
2024-03-14T03:46:25.253Z,98.52
2024-03-14T03:47:25.220Z,98.52
2024-03-14T03:48:25.385Z,98.62
2024-03-14T03:49:25.188Z,98.62
2024-03-14T03:50:25.285Z,98.72
2024-03-14T03:51:25.231Z,98.72
2024-03-14T03:52:25.156Z,98.62
2024-03-14T03:53:25.138Z,98.62
2024-03-14T03:54:25.306Z,98.62
2024-03-14T03:55:25.231Z,98.72
2024-03-14T03:56:25.205Z,98.72
2024-03-14T03:57:25.145Z,98.62
2024-03-14T03:58:25.117Z,98.62
2024-03-14T03:59:25.125Z,98.72
2024-03-14T04:00:25.181Z,98.83
2024-03-14T04:01:25.080Z,98.83
2024-03-14T04:02:25.107Z,98.83
2024-03-14T04:03:25.137Z,98.83
2024-03-14T04:04:25.087Z,98.93
2024-03-14T04:05:33.952Z,98.93
2024-03-14T04:06:25.267Z,98.93
2024-03-14T04:07:25.037Z,98.93
2024-03-14T04:08:25.019Z,98.93
2024-03-14T04:09:25.048Z,98.93
2024-03-14T04:10:25.230Z,98.93
2024-03-14T04:11:24.983Z,99.03
2024-03-14T04:12:25.118Z,99.03
2024-03-14T04:13:24.980Z,98.93
2024-03-14T04:14:25.030Z,98.93
2024-03-14T04:15:25.102Z,99.03
2024-03-14T04:16:24.888Z,99.03
2024-03-14T04:17:25.010Z,99.03
2024-03-14T04:18:24.999Z,99.13
2024-03-14T04:19:32.905Z,99.24
2024-03-14T04:20:24.963Z,99.34
2024-03-14T04:21:24.959Z,99.34
2024-03-14T04:22:24.852Z,99.34
2024-03-14T04:23:24.914Z,99.34
2024-03-14T04:24:24.959Z,99.34
2024-03-14T04:25:24.888Z,99.34
2024-03-14T04:26:24.813Z,99.34
2024-03-14T04:27:25.220Z,99.24
2024-03-14T04:28:25.032Z,99.19
2024-03-14T04:29:24.771Z,99.19
2024-03-14T04:30:25.195Z,99.19
2024-03-14T04:31:24.788Z,99.19
2024-03-14T04:32:24.751Z,99.09
2024-03-14T04:33:24.932Z,99.09
2024-03-14T04:34:24.783Z,99.09
2024-03-14T04:35:24.706Z,99.19
2024-03-14T04:36:24.793Z,99.19
2024-03-14T04:37:24.709Z,99.19
2024-03-14T04:38:24.786Z,99.19
2024-03-14T04:39:24.746Z,99.19
2024-03-14T04:40:24.742Z,99.29
2024-03-14T04:41:32.430Z,99.19
2024-03-14T04:42:24.875Z,99.29
2024-03-14T04:43:24.712Z,99.19
2024-03-14T04:44:24.613Z,99.19
2024-03-14T04:45:24.584Z,99.29
2024-03-14T04:46:24.588Z,99.29
2024-03-14T04:47:24.622Z,99.29
2024-03-14T04:48:24.791Z,99.09
2024-03-14T04:49:24.621Z,98.88
2024-03-14T04:50:24.570Z,98.88
2024-03-14T04:51:24.571Z,98.78
2024-03-14T04:52:24.586Z,98.78
2024-03-14T04:53:24.584Z,98.78
2024-03-14T04:54:24.589Z,98.88
2024-03-14T04:55:24.558Z,98.88
2024-03-14T04:56:24.470Z,98.88
2024-03-14T04:57:24.534Z,98.99
2024-03-14T04:58:24.451Z,98.99
2024-03-14T04:59:24.484Z,98.99
2024-03-14T05:00:24.506Z,98.88
2024-03-14T05:01:24.445Z,98.88
2024-03-14T05:02:24.428Z,98.88
2024-03-14T05:03:24.468Z,98.88
2024-03-14T05:04:24.419Z,98.88
2024-03-14T05:05:24.399Z,98.88
2024-03-14T05:06:24.397Z,98.88
2024-03-14T05:07:24.388Z,98.99
2024-03-14T05:08:24.362Z,99.09
2024-03-14T05:09:24.334Z,99.09
2024-03-14T05:10:24.355Z,99.19
2024-03-14T05:11:24.363Z,99.40
2024-03-14T05:12:24.336Z,99.50
2024-03-14T05:13:26.438Z,99.50
2024-03-14T05:14:24.346Z,99.60
2024-03-14T05:15:24.398Z,99.60
2024-03-14T05:16:24.296Z,99.60
2024-03-14T05:17:24.268Z,99.60
2024-03-14T05:18:24.280Z,99.60
2024-03-14T05:19:26.404Z,99.66
2024-03-14T05:20:24.199Z,99.60
2024-03-14T05:21:24.267Z,99.55
2024-03-14T05:22:24.251Z,99.66
2024-03-14T05:23:24.271Z,99.66
2024-03-14T05:24:24.338Z,99.55
2024-03-14T05:25:24.178Z,99.66
2024-03-14T05:26:24.317Z,99.66
2024-03-14T05:27:24.339Z,99.76
2024-03-14T05:28:24.170Z,99.76
2024-03-14T05:29:24.246Z,99.76
2024-03-14T05:30:24.192Z,99.66
2024-03-14T05:31:24.173Z,99.66
2024-03-14T05:32:24.209Z,99.55
2024-03-14T05:33:24.230Z,99.55
2024-03-14T05:34:24.176Z,99.55
2024-03-14T05:35:24.089Z,99.55
2024-03-14T05:36:24.113Z,99.55
2024-03-14T05:37:24.080Z,99.66
2024-03-14T05:38:24.174Z,99.76
2024-03-14T05:39:24.071Z,99.66
2024-03-14T05:40:24.035Z,99.66
2024-03-14T05:41:23.976Z,99.76
2024-03-14T05:42:23.998Z,99.76
2024-03-14T05:43:24.067Z,99.76
2024-03-14T05:44:23.940Z,99.76
2024-03-14T05:45:23.946Z,99.76
2024-03-14T05:46:23.956Z,99.76
2024-03-14T05:47:23.944Z,99.76
2024-03-14T05:48:24.069Z,99.86
2024-03-14T05:49:23.914Z,99.86
2024-03-14T05:50:23.937Z,99.86
2024-03-14T05:51:24.059Z,99.86
2024-03-14T05:52:23.884Z,99.82
2024-03-14T05:53:23.852Z,99.71
2024-03-14T05:54:23.892Z,99.61
2024-03-14T05:55:23.841Z,99.61
2024-03-14T05:56:23.858Z,99.51
2024-03-14T05:57:23.827Z,99.51
2024-03-14T05:58:23.787Z,99.41
2024-03-14T05:59:23.835Z,99.41
2024-03-14T06:00:23.864Z,99.41
2024-03-14T06:01:24.311Z,99.30
2024-03-14T06:02:23.768Z,99.30
2024-03-14T06:03:23.787Z,99.41
2024-03-14T06:04:35.933Z,99.30
2024-03-14T06:05:23.878Z,99.41
2024-03-14T06:06:23.990Z,99.41
2024-03-14T06:07:23.899Z,99.51
2024-03-14T06:08:23.718Z,99.51
2024-03-14T06:09:23.742Z,99.46
2024-03-14T06:10:23.727Z,99.36
2024-03-14T06:11:23.708Z,99.36
2024-03-14T06:12:23.721Z,99.36
2024-03-14T06:13:23.718Z,99.36
2024-03-14T06:14:23.682Z,99.36
2024-03-14T06:15:23.734Z,99.36
2024-03-14T06:16:23.609Z,99.36
2024-03-14T06:17:23.677Z,99.36
2024-03-14T06:18:23.742Z,99.46
2024-03-14T06:19:23.717Z,99.46
2024-03-14T06:20:23.592Z,99.56
2024-03-14T06:21:23.603Z,99.56
2024-03-14T06:22:23.563Z,99.56
2024-03-14T06:23:23.560Z,99.66
2024-03-14T06:24:23.618Z,99.56
2024-03-14T06:25:23.620Z,99.56
2024-03-14T06:26:23.538Z,99.56
2024-03-14T06:27:23.519Z,99.56
2024-03-14T06:28:23.485Z,99.56
2024-03-14T06:29:40.341Z,99.56
2024-03-14T06:30:24.298Z,99.66
2024-03-14T06:31:23.535Z,99.66
2024-03-14T06:32:23.442Z,99.66
2024-03-14T06:33:23.525Z,99.66
2024-03-14T06:37:02.804Z,99.56
2024-03-14T06:38:03.588Z,99.56
2024-03-14T06:39:03.631Z,99.56
2024-03-14T06:40:03.596Z,99.56
2024-03-14T06:41:03.551Z,99.56
2024-03-14T06:42:03.553Z,99.56
2024-03-14T06:43:03.588Z,99.52
2024-03-14T06:44:03.523Z,99.66
2024-03-14T06:45:03.546Z,99.52
2024-03-14T06:46:03.512Z,99.56
2024-03-14T06:47:03.488Z,99.52
2024-03-14T06:48:03.564Z,99.52
2024-03-14T06:49:03.753Z,99.52
2024-03-14T06:50:03.524Z,99.56
2024-03-14T06:51:03.569Z,99.66
2024-03-14T06:52:03.424Z,99.72
2024-03-14T06:53:03.433Z,99.82
2024-03-14T06:54:04.536Z,99.93
2024-03-14T06:55:03.446Z,99.82
2024-03-14T06:56:03.412Z,99.72
2024-03-14T06:57:03.436Z,99.52
2024-03-14T06:58:03.376Z,99.52
2024-03-14T06:59:03.442Z,99.41
2024-03-14T07:00:03.402Z,99.41
2024-03-14T07:01:03.416Z,99.41
2024-03-14T07:02:03.347Z,99.41
2024-03-14T07:03:03.379Z,99.31
2024-03-14T07:04:03.335Z,99.31
2024-03-14T07:05:04.254Z,99.16
2024-03-14T07:06:03.334Z,99.16
2024-03-14T07:07:03.270Z,99.06
2024-03-14T07:08:03.260Z,99.06
2024-03-14T07:09:03.269Z,98.96
2024-03-14T07:10:03.238Z,98.96
2024-03-14T07:11:03.274Z,98.86
2024-03-14T07:12:03.277Z,98.65
2024-03-14T07:13:03.211Z,98.55
2024-03-14T07:14:03.199Z,98.45
2024-03-14T07:15:03.293Z,98.35
2024-03-14T07:16:03.200Z,98.45
2024-03-14T07:17:03.150Z,98.45
2024-03-14T07:18:03.237Z,98.45
2024-03-14T07:19:03.168Z,98.30
2024-03-14T07:20:03.147Z,98.30
2024-03-14T07:21:03.200Z,98.30
2024-03-14T07:22:03.078Z,98.30
2024-03-14T07:23:03.091Z,98.30
2024-03-14T07:24:03.120Z,98.30
2024-03-14T07:25:04.835Z,98.20
2024-03-14T07:26:03.109Z,98.20
2024-03-14T07:27:03.096Z,98.20
2024-03-14T07:28:03.034Z,98.20
2024-03-14T07:29:03.006Z,98.20
2024-03-14T07:30:03.055Z,97.99
2024-03-14T07:31:03.017Z,97.89
2024-03-14T07:32:03.005Z,97.89
2024-03-14T07:33:03.079Z,97.89
2024-03-14T07:34:03.089Z,97.99
2024-03-14T07:35:03.046Z,98.10
2024-03-14T07:36:02.991Z,98.10
2024-03-14T07:37:02.943Z,97.89
2024-03-14T07:38:02.944Z,97.79
2024-03-14T07:39:02.957Z,97.69
2024-03-14T07:40:03.245Z,97.74
2024-03-14T08:21:16.599Z,97.29
2024-03-14T08:22:17.502Z,97.29
2024-03-14T08:23:17.759Z,97.19
2024-03-14T08:24:17.377Z,97.08
2024-03-14T08:25:17.734Z,97.08
2024-03-14T08:26:17.450Z,97.19
2024-03-14T08:27:17.973Z,97.19
2024-03-14T08:28:17.301Z,96.78
2024-03-14T08:29:17.302Z,96.58
2024-03-14T08:30:17.251Z,96.58
2024-03-14T08:31:17.394Z,96.58
2024-03-14T08:32:17.551Z,96.58
2024-03-14T08:33:17.798Z,96.47
2024-03-14T08:34:17.595Z,96.47
2024-03-14T08:35:17.468Z,96.47
2024-03-14T08:36:18.179Z,96.37
2024-03-14T08:37:17.408Z,96.27
2024-03-14T08:38:17.647Z,96.27
2024-03-14T08:39:18.374Z,96.27
2024-03-14T08:40:17.245Z,96.22
2024-03-14T08:41:17.303Z,96.22
2024-03-14T08:42:17.323Z,96.22
2024-03-14T08:43:17.344Z,96.12
2024-03-14T08:44:17.204Z,96.02
2024-03-14T08:45:17.346Z,95.92
2024-03-14T08:46:17.276Z,95.72
2024-03-14T08:47:17.371Z,95.72
2024-03-14T08:48:17.369Z,95.61
2024-03-14T08:49:17.089Z,95.72
2024-03-14T08:50:17.198Z,95.47
2024-03-14T08:51:17.131Z,95.36
2024-03-14T08:52:17.189Z,95.26
2024-03-14T08:53:17.325Z,95.16
2024-03-14T08:54:17.077Z,95.06
2024-03-14T08:55:17.130Z,94.95
2024-03-14T08:56:17.105Z,94.95
2024-03-14T08:57:17.085Z,94.95
2024-03-14T08:58:16.953Z,94.45
2024-03-14T08:59:16.992Z,94.24
2024-03-14T09:00:17.099Z,94.34
2024-03-14T09:01:16.932Z,94.20
2024-03-14T09:02:16.885Z,93.99
2024-03-14T09:03:16.927Z,93.79
2024-03-14T09:04:17.177Z,93.79
2024-03-14T09:05:17.245Z,93.79
2024-03-14T09:06:17.149Z,93.89
2024-03-14T09:07:17.008Z,93.99
2024-03-14T09:08:16.916Z,93.69
2024-03-14T09:09:16.949Z,93.79
2024-03-14T09:10:16.863Z,93.79
2024-03-14T09:11:16.910Z,93.64
2024-03-14T09:12:18.214Z,93.54
2024-03-14T09:13:16.974Z,93.54
2024-03-14T09:14:16.815Z,93.24
2024-03-14T09:15:16.879Z,92.93
2024-03-14T09:16:16.751Z,92.63
2024-03-14T09:17:16.770Z,92.42
2024-03-14T09:18:17.156Z,92.11
2024-03-14T09:19:16.807Z,92.11
2024-03-14T09:20:16.753Z,92.52
2024-03-14T09:21:16.768Z,92.72
2024-03-14T09:22:16.675Z,92.63
2024-03-14T09:23:16.726Z,92.52
2024-03-14T09:24:16.792Z,92.27
2024-03-14T09:25:16.664Z,91.87
2024-03-14T09:26:16.697Z,91.66
2024-03-14T09:27:16.688Z,91.46
2024-03-14T09:28:16.642Z,91.16
2024-03-14T09:29:16.727Z,91.16
2024-03-14T09:30:16.748Z,90.95
2024-03-14T09:31:16.605Z,90.75
2024-03-14T09:32:16.672Z,90.50
2024-03-14T09:33:16.766Z,90.50
2024-03-14T09:34:16.619Z,90.60
2024-03-14T09:35:16.662Z,90.60
2024-03-14T09:36:16.758Z,90.30
2024-03-14T09:37:16.535Z,90.30
2024-03-14T09:38:16.661Z,90.09
2024-03-14T09:39:16.542Z,89.85
2024-03-14T09:40:16.578Z,89.54
2024-03-14T09:41:21.810Z,89.14
2024-03-14T09:42:16.617Z,89.03
2024-03-14T09:43:16.605Z,89.44
2024-03-14T09:44:16.525Z,89.64
2024-03-14T09:45:16.627Z,89.03
2024-03-14T09:46:16.534Z,88.32
2024-03-14T09:47:16.443Z,87.51
2024-03-14T09:48:16.498Z,87.92
2024-03-14T09:49:16.440Z,87.81
2024-03-14T09:50:16.479Z,87.61
2024-03-14T09:51:16.518Z,87.87
2024-03-14T09:52:16.491Z,88.28
2024-03-14T09:53:16.506Z,87.87
2024-03-14T09:54:16.483Z,88.08
2024-03-14T09:55:16.456Z,87.43
2024-03-14T09:56:16.307Z,86.55
2024-03-14T09:57:16.364Z,86.71
2024-03-14T09:58:16.350Z,87.43
2024-03-14T09:59:16.296Z,86.61
2024-03-14T10:00:16.470Z,86.31
2024-03-14T10:01:16.406Z,86.10
2024-03-14T10:02:16.315Z,86.61
2024-03-14T10:03:16.257Z,86.82
2024-03-14T10:04:16.261Z,86.47
2024-03-14T10:05:16.235Z,86.47
2024-03-14T10:06:16.361Z,86.68
2024-03-14T10:07:16.206Z,86.16
2024-03-14T10:08:16.216Z,85.76
2024-03-14T10:09:20.640Z,84.95
2024-03-14T10:10:16.715Z,85.25
2024-03-14T10:11:16.211Z,84.74
2024-03-14T10:12:16.304Z,84.44
2024-03-14T10:13:16.206Z,84.13
2024-03-14T10:14:16.125Z,84.54
2024-03-14T10:15:16.209Z,84.84
2024-03-14T10:16:16.152Z,84.74
2024-03-14T10:17:16.242Z,83.69
2024-03-14T10:18:16.214Z,83.28
2024-03-14T10:19:16.193Z,83.08
2024-03-14T10:20:16.128Z,83.08
2024-03-14T10:21:16.209Z,83.59
2024-03-14T10:22:16.043Z,83.18
2024-03-14T10:23:16.056Z,82.94
2024-03-14T10:24:16.148Z,82.43
2024-03-14T10:25:16.054Z,82.64
2024-03-14T10:26:16.023Z,82.33
2024-03-14T10:27:15.994Z,82.53
2024-03-14T10:28:16.101Z,83.04
2024-03-14T10:29:15.967Z,83.14
2024-03-14T10:30:15.979Z,82.90
2024-03-14T10:31:16.011Z,82.70
2024-03-14T10:32:16.057Z,82.39
2024-03-14T10:33:17.656Z,81.68
2024-03-14T10:34:16.055Z,81.38
2024-03-14T10:35:16.017Z,81.18
2024-03-14T10:42:41.101Z,78.70
2024-03-14T10:43:42.094Z,79.11
2024-03-14T10:44:42.048Z,79.41
2024-03-14T10:45:42.030Z,79.11
2024-03-14T10:46:41.967Z,78.60
2024-03-14T10:47:42.040Z,78.40
2024-03-14T10:48:42.038Z,78.60
2024-03-14T10:49:41.939Z,78.70
2024-03-14T10:50:41.963Z,78.16
2024-03-14T10:51:42.044Z,79.07
2024-03-14T10:52:41.900Z,78.26
2024-03-14T10:53:41.913Z,77.65
2024-03-14T10:54:41.877Z,76.33
2024-03-14T10:55:41.852Z,76.03
2024-03-14T10:56:43.847Z,76.74
2024-03-14T10:57:41.917Z,76.33
2024-03-14T10:58:41.819Z,76.64
2024-03-14T10:59:41.830Z,76.84
2024-03-14T11:00:41.934Z,76.84
2024-03-14T11:01:41.867Z,76.23
2024-03-14T11:02:41.785Z,74.51
2024-03-14T11:03:41.836Z,75.32
2024-03-14T11:04:41.867Z,74.91
2024-03-14T11:05:41.768Z,75.42
2024-03-14T11:06:41.810Z,74.91
2024-03-14T11:07:41.738Z,74.51
2024-03-14T11:08:41.765Z,75.52
2024-03-14T11:09:41.803Z,76.03
2024-03-14T11:10:41.742Z,75.52
2024-03-14T11:11:41.824Z,75.42
2024-03-14T11:12:41.749Z,75.01
2024-03-14T11:13:41.716Z,73.80
2024-03-14T11:14:41.686Z,74.30
2024-03-14T11:15:41.815Z,74.41
2024-03-14T11:16:41.665Z,73.70
2024-03-14T11:17:41.659Z,73.66
2024-03-14T11:18:41.691Z,74.17
2024-03-14T11:19:41.600Z,74.37
2024-03-14T11:20:41.633Z,74.57
2024-03-14T11:21:41.637Z,73.97
2024-03-14T11:22:41.570Z,74.17
2024-03-14T11:23:41.603Z,74.07
2024-03-14T11:24:41.592Z,73.56
2024-03-14T11:25:41.556Z,73.36
2024-03-14T11:26:41.592Z,73.76
2024-03-14T11:27:41.582Z,73.46
2024-03-14T11:28:41.532Z,73.46
2024-03-14T11:29:41.562Z,74.27
2024-03-14T11:30:41.562Z,72.81
2024-03-14T11:31:41.504Z,72.92
2024-03-14T11:32:41.543Z,71.91
2024-03-14T11:33:41.552Z,71.80
2024-03-14T11:34:41.547Z,72.61
2024-03-14T11:35:41.455Z,73.22
2024-03-14T11:36:41.498Z,73.32
2024-03-14T11:37:41.511Z,72.72
2024-03-14T11:38:41.441Z,71.70
2024-03-14T11:39:41.471Z,72.01
2024-03-14T11:40:41.384Z,72.01
2024-03-14T11:41:41.375Z,72.21
2024-03-14T11:42:41.420Z,73.12
2024-03-14T11:43:41.402Z,71.80
2024-03-14T11:44:41.363Z,72.61
2024-03-14T11:45:41.397Z,72.31
2024-03-14T11:46:42.815Z,72.68
2024-03-14T11:47:41.364Z,72.28
2024-03-14T11:48:41.495Z,71.97
2024-03-14T11:49:41.318Z,71.26
2024-03-14T11:50:41.296Z,70.65
2024-03-14T11:51:41.335Z,69.85
2024-03-14T11:52:41.291Z,70.65
2024-03-14T11:53:41.329Z,71.26
2024-03-14T11:54:41.265Z,71.03
2024-03-14T11:55:43.827Z,70.25
2024-03-14T11:56:41.268Z,70.45
2024-03-14T11:57:41.382Z,70.96
2024-03-14T11:58:41.336Z,71.03
2024-03-14T11:59:45.601Z,70.05
2024-03-14T12:00:41.219Z,69.44
2024-03-14T12:01:50.047Z,69.95
2024-03-14T12:02:41.179Z,70.05
2024-03-14T12:03:41.318Z,69.74
2024-03-14T12:04:41.196Z,69.85
2024-03-14T12:05:41.118Z,69.95
2024-03-14T12:06:41.180Z,70.36
2024-03-14T12:07:41.203Z,69.65
2024-03-14T12:08:41.267Z,70.45
2024-03-14T12:09:41.118Z,70.18
2024-03-14T12:10:41.092Z,70.08
2024-03-14T12:11:41.120Z,70.89
2024-03-14T12:12:41.198Z,69.78
2024-03-14T12:13:41.164Z,69.92
2024-03-14T12:14:41.080Z,69.81
2024-03-14T12:15:41.086Z,70.01
2024-03-14T12:42:23.049Z,68.77
2024-03-14T12:43:23.963Z,69.57
2024-03-14T12:44:24.007Z,68.87
2024-03-14T12:45:23.893Z,68.70
2024-03-14T12:46:23.812Z,69.31
2024-03-14T12:47:23.806Z,69.51
2024-03-14T12:48:23.908Z,67.48
2024-03-14T12:49:23.799Z,68.60
2024-03-14T12:50:23.790Z,69.51
2024-03-14T12:51:23.802Z,70.01
2024-03-14T12:52:23.750Z,69.81
2024-03-14T12:53:23.766Z,69.10
2024-03-14T12:54:23.800Z,68.80
2024-03-14T12:55:23.750Z,68.40
2024-03-14T12:56:23.759Z,68.49
2024-03-14T12:57:23.824Z,67.68
2024-03-14T12:58:24.139Z,66.88
2024-03-14T12:59:24.300Z,67.55
2024-03-14T13:00:23.741Z,66.03
2024-03-14T13:01:23.687Z,65.12
2024-03-14T13:02:23.657Z,65.42
2024-03-14T13:03:24.144Z,65.02
2024-03-14T13:04:23.677Z,64.51
2024-03-14T13:05:23.739Z,64.51
2024-03-14T13:06:23.806Z,64.61
2024-03-14T13:07:23.635Z,64.31
2024-03-14T13:08:23.632Z,64.51
2024-03-14T13:09:23.631Z,64.69
2024-03-14T13:10:23.563Z,65.39
2024-03-14T13:11:23.595Z,64.99
2024-03-14T13:12:24.146Z,63.67
2024-03-14T13:13:23.553Z,63.98
2024-03-14T13:14:23.543Z,65.29
2024-03-14T13:15:23.655Z,64.79
2024-03-14T13:16:23.583Z,64.79
2024-03-14T13:17:23.500Z,63.47
2024-03-14T13:18:23.731Z,63.70
2024-03-14T13:19:23.513Z,64.21
2024-03-14T13:20:23.562Z,64.72
2024-03-14T13:21:23.552Z,64.18
2024-03-14T13:22:23.450Z,64.28
2024-03-14T13:23:23.427Z,63.27
2024-03-14T13:24:23.467Z,64.07
2024-03-14T13:25:23.419Z,64.18
2024-03-14T13:26:23.378Z,64.18
2024-03-14T13:27:23.426Z,63.67
2024-03-14T13:28:23.363Z,64.38
2024-03-14T13:29:23.355Z,64.99
2024-03-14T13:30:23.411Z,63.78
2024-03-14T13:31:23.370Z,64.48
2024-03-14T13:32:23.333Z,65.29
2024-03-14T13:33:23.420Z,64.58
2024-03-14T13:34:23.355Z,64.18
2024-03-14T13:35:23.409Z,64.48
2024-03-14T13:36:23.382Z,64.72
2024-03-14T13:37:23.336Z,64.31
2024-03-14T13:38:23.288Z,65.12
2024-03-14T13:39:23.318Z,65.02
2024-03-14T13:40:23.396Z,65.42
2024-03-14T13:41:29.692Z,65.22
2024-03-14T13:42:23.380Z,65.83
2024-03-14T13:43:24.742Z,65.42
2024-03-14T13:44:23.238Z,65.73
2024-03-14T13:45:23.339Z,65.93
2024-03-14T13:46:23.189Z,65.93
2024-03-14T13:47:27.429Z,66.16
2024-03-14T13:48:23.395Z,66.27
2024-03-14T13:49:23.136Z,65.56
2024-03-14T13:50:23.148Z,66.27
2024-03-14T13:51:23.181Z,66.16
2024-03-14T13:52:23.165Z,66.47
2024-03-14T13:54:23.110Z,66.27
2024-03-14T13:55:23.091Z,66.67
2024-03-14T13:56:23.214Z,67.38
2024-03-14T13:57:23.078Z,66.47
2024-03-14T13:58:23.047Z,67.21
2024-03-14T13:59:23.084Z,67.41
2024-03-14T14:00:23.039Z,67.61
2024-03-14T14:01:23.279Z,67.31
2024-03-14T14:02:23.014Z,67.11
2024-03-14T14:03:23.060Z,66.80
2024-03-14T14:04:22.999Z,66.60
2024-03-14T14:05:22.982Z,67.31
2024-03-14T14:06:23.057Z,67.00
2024-03-14T14:07:22.922Z,67.11
2024-03-14T14:08:22.957Z,67.11
2024-03-14T14:09:23.013Z,66.70